createdAt,value
2023-05-06T00:02:20.310Z,95735.64
2023-05-06T00:04:48.666Z,95734.80
2023-05-06T00:07:17.065Z,95731.95
2023-05-06T00:09:45.512Z,95728.55
2023-05-06T00:12:14.131Z,95728.31
2023-05-06T00:14:42.676Z,95728.69
2023-05-06T00:17:11.232Z,95727.79
2023-05-06T00:19:39.967Z,95732.52
2023-05-06T00:22:08.334Z,95732.61
2023-05-06T00:24:36.531Z,95730.59
2023-05-06T00:27:04.689Z,95732.88
2023-05-06T00:29:32.916Z,95728.92
2023-05-06T00:32:01.147Z,95728.44
2023-05-06T00:34:29.430Z,95726.76
2023-05-06T00:36:57.534Z,95727.94
2023-05-06T00:39:27.010Z,95732.02
2023-05-06T00:41:59.865Z,95727.66
2023-05-06T00:44:29.100Z,95728.19
2023-05-06T00:46:59.073Z,95729.30
2023-05-06T00:49:29.477Z,95727.38
2023-05-06T00:51:59.155Z,95723.20
2023-05-06T00:54:27.770Z,95726.44
2023-05-06T00:56:55.946Z,95726.05
2023-05-06T00:59:24.492Z,95725.63
2023-05-06T01:01:54.149Z,95727.19
2023-05-06T01:04:24.273Z,95730.52
2023-05-06T01:07:20.254Z,95727.36
2023-05-06T01:10:21.661Z,95725.41
2023-05-06T01:12:55.182Z,95725.94
2023-05-06T01:15:36.613Z,95732.16
2023-05-06T01:18:10.930Z,95733.92
2023-05-06T01:20:42.362Z,95737.09
2023-05-06T01:23:14.892Z,95734.96
2023-05-06T01:25:43.643Z,95736.39
2023-05-06T01:28:13.141Z,95734.23
2023-05-06T01:31:11.659Z,95733.59
2023-05-06T01:34:05.044Z,95735.69
2023-05-06T01:36:45.616Z,95742.08
2023-05-06T01:39:31.193Z,95741.44
2023-05-06T01:42:02.298Z,95738.50
2023-05-06T01:44:34.107Z,95735.23
2023-05-06T01:47:03.496Z,95735.12
2023-05-06T01:49:32.664Z,95734.75
2023-05-06T01:52:02.419Z,95733.73
2023-05-06T01:54:30.769Z,95734.43
2023-05-06T01:56:58.934Z,95734.40
2023-05-06T01:59:28.424Z,95735.11
2023-05-06T02:01:57.922Z,95734.89
2023-05-06T02:04:26.231Z,95735.96
2023-05-06T02:06:54.429Z,95735.72
2023-05-06T02:09:22.882Z,95733.55
2023-05-06T02:11:56.243Z,95730.34
2023-05-06T02:14:25.111Z,95732.33
2023-05-06T02:16:53.749Z,95732.32
2023-05-06T02:19:22.247Z,95733.16
2023-05-06T02:21:50.556Z,95738.65
2023-05-06T02:24:18.573Z,95738.27
2023-05-06T02:26:46.920Z,95740.14
2023-05-06T02:29:14.919Z,95741.77
2023-05-06T02:31:43.346Z,95743.92
2023-05-06T02:34:11.602Z,95741.41
2023-05-06T02:36:39.881Z,95741.06
2023-05-06T02:39:08.395Z,95736.42
2023-05-06T02:41:36.748Z,95735.41
2023-05-06T02:44:05.279Z,95731.88
2023-05-06T02:46:33.609Z,95736.71
2023-05-06T02:49:02.169Z,95732.48
2023-05-06T02:51:31.423Z,95732.48
2023-05-06T02:53:59.672Z,95737.45
2023-05-06T02:56:27.789Z,95738.98
2023-05-06T02:58:56.021Z,95744.24
2023-05-06T03:01:24.483Z,95746.30
2023-05-06T03:03:53.964Z,95744.02
2023-05-06T03:06:22.184Z,95744.48
2023-05-06T03:08:50.416Z,95745.66
2023-05-06T03:11:19.270Z,95741.16
2023-05-06T03:13:47.533Z,95742.16
2023-05-06T03:16:15.670Z,95742.29
2023-05-06T03:18:45.600Z,95744.94
2023-05-06T03:21:14.295Z,95746.16
2023-05-06T03:23:43.216Z,95750.14
2023-05-06T03:26:12.204Z,95754.89
2023-05-06T03:28:44.336Z,95752.67
2023-05-06T03:31:13.606Z,95755.50
2023-05-06T03:33:42.305Z,95758.70
2023-05-06T03:36:14.160Z,95756.38
2023-05-06T03:38:43.331Z,95762.44
2023-05-06T03:41:11.691Z,95762.40
2023-05-06T03:43:40.084Z,95763.60
2023-05-06T03:46:08.569Z,95760.95
2023-05-06T03:48:37.586Z,95762.06
2023-05-06T03:51:08.191Z,95769.84
2023-05-06T03:53:36.744Z,95773.38
2023-05-06T03:56:05.986Z,95771.96
2023-05-06T03:58:34.989Z,95774.71
2023-05-06T04:01:04.627Z,95774.29
2023-05-06T04:03:34.081Z,95773.33
2023-05-06T04:06:02.605Z,95772.93
2023-05-06T04:08:31.224Z,95768.35
2023-05-06T04:11:05.214Z,95772.17
2023-05-06T04:13:34.654Z,95768.83
2023-05-06T04:16:05.679Z,95775.04
2023-05-06T04:18:40.004Z,95772.86
2023-05-06T04:21:14.379Z,95774.55
2023-05-06T04:23:44.535Z,95775.86
2023-05-06T04:26:15.739Z,95778.96
2023-05-06T04:28:44.296Z,95780.89
2023-05-06T04:31:14.685Z,95778.56
2023-05-06T04:33:47.783Z,95772.67
2023-05-06T04:36:17.466Z,95773.98
2023-05-06T04:38:53.693Z,95772.85
2023-05-06T04:41:22.267Z,95767.95
2023-05-06T04:43:50.882Z,95772.25
2023-05-06T04:46:23.871Z,95773.52
2023-05-06T04:48:53.838Z,95773.19
2023-05-06T04:51:22.787Z,95777.20
2023-05-06T04:53:52.861Z,95778.61
2023-05-06T04:56:21.316Z,95773.55
2023-05-06T04:58:49.968Z,95768.77
2023-05-06T05:01:19.644Z,95768.09
2023-05-06T05:03:48.329Z,95762.85
2023-05-06T05:06:17.167Z,95764.68
2023-05-06T05:08:46.076Z,95764.06
2023-05-06T05:11:14.542Z,95760.48
2023-05-06T05:13:42.672Z,95754.34
2023-05-06T05:16:11.210Z,95750.77
2023-05-06T05:18:40.919Z,95752.74
2023-05-06T05:21:14.853Z,95749.61
2023-05-06T05:23:43.109Z,95750.50
2023-05-06T05:26:11.791Z,95746.05
2023-05-06T05:28:40.399Z,95745.27
2023-05-06T05:31:10.329Z,95746.66
2023-05-06T05:33:38.832Z,95742.63
2023-05-06T05:36:09.610Z,95744.33
2023-05-06T05:38:38.151Z,95743.34
2023-05-06T05:41:06.707Z,95745.75
2023-05-06T05:43:35.170Z,95746.41
2023-05-06T05:46:04.011Z,95743.09
2023-05-06T05:48:34.406Z,95740.31
2023-05-06T05:51:03.382Z,95741.63
2023-05-06T05:53:31.986Z,95741.18
2023-05-06T05:56:00.352Z,95741.77
2023-05-06T05:58:28.975Z,95743.83
2023-05-06T06:00:58.769Z,95743.49
2023-05-06T06:03:27.466Z,95745.83
2023-05-06T06:05:56.145Z,95744.66
2023-05-06T06:08:26.600Z,95745.41
2023-05-06T06:10:55.227Z,95745.96
2023-05-06T06:13:28.906Z,95747.89
2023-05-06T06:15:57.974Z,95746.09
2023-05-06T06:18:26.261Z,95742.77
2023-05-06T06:20:54.606Z,95744.84
2023-05-06T06:23:22.856Z,95743.98
2023-05-06T06:25:51.097Z,95745.52
2023-05-06T06:28:19.321Z,95746.94
2023-05-06T06:30:48.016Z,95745.92
2023-05-06T06:33:16.256Z,95744.20
2023-05-06T06:35:44.343Z,95744.59
2023-05-06T06:38:13.390Z,95748.13
2023-05-06T06:40:41.765Z,95745.15
2023-05-06T06:43:09.900Z,95748.49
2023-05-06T06:45:51.078Z,95745.66
2023-05-06T06:48:20.448Z,95741.80
2023-05-06T06:50:48.786Z,95746.23
2023-05-06T06:53:17.600Z,95740.84
2023-05-06T06:55:46.871Z,95740.55
2023-05-06T06:58:15.202Z,95744.28
2023-05-06T07:00:44.074Z,95743.75
2023-05-06T07:03:15.622Z,95744.43
2023-05-06T07:05:44.370Z,95741.46
2023-05-06T07:08:12.566Z,95743.73
2023-05-06T07:10:41.750Z,95744.23
2023-05-06T07:13:09.886Z,95746.75
2023-05-06T07:15:38.025Z,95742.64
2023-05-06T07:18:07.188Z,95746.07
2023-05-06T07:20:35.630Z,95740.77
2023-05-06T07:23:04.086Z,95741.22
2023-05-06T07:25:32.682Z,95736.88
2023-05-06T07:28:01.040Z,95734.98
2023-05-06T07:30:29.203Z,95740.30
2023-05-06T07:32:57.270Z,95741.11
2023-05-06T07:35:25.763Z,95739.75
2023-05-06T07:37:54.463Z,95741.95
2023-05-06T07:40:22.822Z,95745.90
2023-05-06T07:42:51.365Z,95743.16
2023-05-06T07:45:23.479Z,95744.02
2023-05-06T07:47:51.798Z,95739.27
2023-05-06T07:50:20.316Z,95742.77
2023-05-06T07:52:48.661Z,95743.05
2023-05-06T07:55:16.889Z,95742.92
2023-05-06T07:57:45.193Z,95744.52
2023-05-06T08:00:13.979Z,95744.96
2023-05-06T08:02:46.891Z,95746.70
2023-05-06T08:05:15.361Z,95746.39
2023-05-06T08:07:44.061Z,95744.48
2023-05-06T08:10:12.230Z,95745.47
2023-05-06T08:12:40.330Z,95741.83
2023-05-06T08:15:09.785Z,95745.58
2023-05-06T08:17:38.606Z,95742.33
2023-05-06T08:20:08.185Z,95748.17
2023-05-06T08:22:36.496Z,95751.27
2023-05-06T08:25:05.224Z,95748.80
2023-05-06T08:27:33.588Z,95752.30
2023-05-06T08:30:01.824Z,95751.13
2023-05-06T08:32:30.772Z,95749.54
2023-05-06T08:35:00.665Z,95748.05
2023-05-06T08:37:30.790Z,95751.42
2023-05-06T08:40:00.036Z,95749.61
2023-05-06T08:42:30.534Z,95749.04
2023-05-06T08:44:59.409Z,95746.86
2023-05-06T08:47:27.816Z,95747.85
2023-05-06T08:49:56.373Z,95749.24
2023-05-06T08:52:24.900Z,95747.79
2023-05-06T08:54:58.039Z,95743.59
2023-05-06T08:57:26.403Z,95743.27
2023-05-06T08:59:54.554Z,95746.27
2023-05-06T09:02:23.229Z,95742.70
2023-05-06T09:04:56.771Z,95736.84
2023-05-06T09:07:25.654Z,95742.55
2023-05-06T09:09:53.862Z,95740.73
2023-05-06T09:12:24.833Z,95738.33
2023-05-06T09:14:53.196Z,95736.29
2023-05-06T09:17:24.530Z,95732.64
2023-05-06T09:19:54.626Z,95726.48
2023-05-06T09:22:23.989Z,95728.53
2023-05-06T09:24:56.930Z,95726.54
2023-05-06T09:27:31.380Z,95727.23
2023-05-06T09:30:11.714Z,95726.32
2023-05-06T09:32:40.950Z,95729.61
2023-05-06T09:35:11.294Z,95728.65
2023-05-06T09:37:39.742Z,95726.77
2023-05-06T09:40:09.561Z,95725.77
2023-05-06T09:42:38.022Z,95717.30
2023-05-06T09:45:08.961Z,95720.58
2023-05-06T09:47:38.386Z,95715.09
2023-05-06T09:50:09.714Z,95720.27
2023-05-06T09:52:37.993Z,95720.98
2023-05-06T09:55:08.067Z,95717.08
2023-05-06T09:57:37.831Z,95719.48
2023-05-06T10:00:09.413Z,95715.95
2023-05-06T10:02:45.962Z,95713.56
2023-05-06T10:05:14.812Z,95709.85
2023-05-06T10:07:43.804Z,95710.17
2023-05-06T10:10:12.321Z,95704.44
2023-05-06T10:12:42.193Z,95700.30
2023-05-06T10:15:10.775Z,95700.73
2023-05-06T10:17:41.830Z,95695.48
2023-05-06T10:20:13.836Z,95694.69
2023-05-06T10:22:49.491Z,95691.71
2023-05-06T10:25:33.121Z,95690.56
2023-05-06T10:28:06.196Z,95685.16
2023-05-06T10:30:38.178Z,95685.15
2023-05-06T10:33:11.777Z,95686.69
2023-05-06T10:35:50.932Z,95684.72
2023-05-06T10:38:31.279Z,95687.67
2023-05-06T10:41:01.551Z,95687.30
2023-05-06T10:43:32.638Z,95687.56
2023-05-06T10:46:05.827Z,95687.64
2023-05-06T10:48:35.390Z,95684.50
2023-05-06T10:51:24.818Z,95683.92
2023-05-06T10:54:07.166Z,95682.70
2023-05-06T10:56:40.892Z,95684.40
2023-05-06T10:59:11.386Z,95679.80
2023-05-06T11:01:44.139Z,95674.30
2023-05-06T11:04:14.695Z,95671.84
2023-05-06T11:06:46.594Z,95671.84
2023-05-06T11:09:20.594Z,95671.96
2023-05-06T11:12:05.031Z,95672.51
2023-05-06T11:14:38.718Z,95672.70
2023-05-06T11:17:09.439Z,95668.85
2023-05-06T11:19:39.185Z,95666.80
2023-05-06T11:22:07.901Z,95665.53
2023-05-06T11:24:44.068Z,95662.56
2023-05-06T11:27:17.669Z,95660.07
2023-05-06T11:29:45.789Z,95655.43
2023-05-06T11:32:28.333Z,95654.06
2023-05-06T11:34:57.285Z,95654.17
2023-05-06T11:37:27.407Z,95655.54
2023-05-06T11:39:55.908Z,95649.15
2023-05-06T11:42:29.276Z,95656.17
2023-05-06T11:45:02.155Z,95655.44
2023-05-06T11:47:30.613Z,95652.83
2023-05-06T11:49:59.324Z,95652.58
2023-05-06T11:52:30.477Z,95649.80
2023-05-06T11:54:58.634Z,95648.88
2023-05-06T11:57:26.818Z,95650.27
2023-05-06T11:59:55.441Z,95651.79
2023-05-06T12:02:23.743Z,95652.09
2023-05-06T12:04:53.036Z,95653.59
2023-05-06T12:07:21.398Z,95653.27
2023-05-06T12:09:51.285Z,95651.82
2023-05-06T12:12:22.709Z,95654.77
2023-05-06T12:14:53.616Z,95656.91
2023-05-06T12:17:22.444Z,95658.09
2023-05-06T12:19:51.005Z,95653.91
2023-05-06T12:22:21.559Z,95657.45
2023-05-06T12:24:50.166Z,95656.73
2023-05-06T12:27:32.764Z,95650.89
2023-05-06T12:30:01.605Z,95651.88
2023-05-06T12:32:31.307Z,95656.86
2023-05-06T12:35:00.596Z,95655.82
2023-05-06T12:37:29.978Z,95658.36
2023-05-06T12:39:59.366Z,95658.70
2023-05-06T12:42:28.318Z,95658.92
2023-05-06T12:44:56.764Z,95656.88
2023-05-06T12:47:26.261Z,95659.14
2023-05-06T12:49:59.114Z,95654.38
2023-05-06T12:52:30.156Z,95651.69
2023-05-06T12:55:01.741Z,95649.70
2023-05-06T12:57:30.077Z,95650.48
2023-05-06T12:59:58.266Z,95652.42
2023-05-06T13:02:26.699Z,95654.23
2023-05-06T13:04:55.220Z,95657.92
2023-05-06T13:07:23.227Z,95656.34
2023-05-06T13:09:51.485Z,95649.63
2023-05-06T13:12:19.704Z,95651.09
2023-05-06T13:14:47.936Z,95646.02
2023-05-06T13:17:16.164Z,95643.23
2023-05-06T13:19:45.331Z,95644.42
2023-05-06T13:22:13.569Z,95643.23
2023-05-06T13:24:41.608Z,95642.84
2023-05-06T13:27:09.765Z,95641.95
2023-05-06T13:29:39.026Z,95641.71
2023-05-06T13:32:08.988Z,95635.86
2023-05-06T13:34:37.658Z,95633.45
2023-05-06T13:37:06.080Z,95630.48
2023-05-06T13:39:34.510Z,95633.39
2023-05-06T13:42:03.962Z,95634.15
2023-05-06T13:44:33.144Z,95630.01
2023-05-06T13:47:01.492Z,95626.08
2023-05-06T13:49:29.604Z,95621.91
2023-05-06T13:51:58.468Z,95622.06
2023-05-06T13:54:26.638Z,95621.42
2023-05-06T13:56:54.822Z,95620.93
2023-05-06T13:59:22.998Z,95615.52
2023-05-06T14:01:54.415Z,95615.63
2023-05-06T14:04:22.663Z,95615.31
2023-05-06T14:06:51.603Z,95612.20
2023-05-06T14:09:19.813Z,95613.08
2023-05-06T14:11:48.053Z,95610.55
2023-05-06T14:14:16.574Z,95612.41
2023-05-06T14:16:44.891Z,95612.37
2023-05-06T14:19:13.316Z,95613.95
2023-05-06T14:21:41.433Z,95610.10
2023-05-06T14:24:10.982Z,95608.02
2023-05-06T14:26:40.485Z,95606.84
2023-05-06T14:29:09.175Z,95609.02
2023-05-06T14:31:37.508Z,95607.45
2023-05-06T14:34:05.777Z,95605.47
2023-05-06T14:36:33.926Z,95607.85
2023-05-06T14:39:02.234Z,95605.61
2023-05-06T14:41:31.097Z,95604.33
2023-05-06T14:43:59.664Z,95598.29
2023-05-06T14:46:29.583Z,95600.17
2023-05-06T14:48:58.003Z,95598.14
2023-05-06T14:51:26.456Z,95596.21
2023-05-06T14:53:54.686Z,95594.08
2023-05-06T14:56:22.997Z,95596.40
2023-05-06T14:58:51.778Z,95591.52
2023-05-06T15:01:20.222Z,95587.52
2023-05-06T15:03:50.905Z,95588.11
2023-05-06T15:06:20.438Z,95589.75
2023-05-06T15:08:49.285Z,95582.85
2023-05-06T15:11:17.326Z,95581.74
2023-05-06T15:13:45.869Z,95584.84
2023-05-06T15:16:14.158Z,95580.95
2023-05-06T15:18:43.044Z,95581.73
2023-05-06T15:21:13.467Z,95581.39
2023-05-06T15:23:41.591Z,95586.43
2023-05-06T15:26:09.826Z,95585.23
2023-05-06T15:28:38.312Z,95582.77
2023-05-06T15:31:06.600Z,95584.25
2023-05-06T15:33:34.776Z,95586.08
2023-05-06T15:36:02.906Z,95585.05
2023-05-06T15:38:51.173Z,95585.64
2023-05-06T15:41:19.764Z,95585.05
2023-05-06T15:43:47.927Z,95586.99
2023-05-06T15:46:16.088Z,95581.73
2023-05-06T15:48:44.386Z,95586.48
2023-05-06T15:51:12.818Z,95589.17
2023-05-06T15:53:42.086Z,95586.83
2023-05-06T15:56:18.138Z,95584.95
2023-05-06T15:58:47.234Z,95582.64
2023-05-06T16:01:15.789Z,95578.20
2023-05-06T16:03:44.297Z,95577.52
2023-05-06T16:06:12.560Z,95571.36
2023-05-06T16:08:40.957Z,95572.45
2023-05-06T16:11:09.647Z,95570.39
2023-05-06T16:13:37.848Z,95574.23
2023-05-06T16:16:06.621Z,95570.26
2023-05-06T16:18:35.228Z,95570.69
2023-05-06T16:21:04.699Z,95567.45
2023-05-06T16:23:33.183Z,95567.70
2023-05-06T16:26:02.917Z,95569.18
2023-05-06T16:28:31.479Z,95564.86
2023-05-06T16:31:02.501Z,95563.93
2023-05-06T16:33:30.915Z,95562.12
2023-05-06T16:35:59.288Z,95568.63
2023-05-06T16:38:27.407Z,95571.58
2023-05-06T16:40:55.560Z,95582.65
2023-05-06T16:43:23.693Z,95586.27
2023-05-06T16:45:52.012Z,95589.52
2023-05-06T16:48:20.733Z,95600.36
2023-05-06T16:50:49.090Z,95606.29
2023-05-06T16:53:17.643Z,95609.81
2023-05-06T16:55:48.825Z,95609.96
2023-05-06T16:58:17.286Z,95615.36
2023-05-06T17:00:45.831Z,95617.29
2023-05-06T17:03:14.158Z,95619.59
2023-05-06T17:05:42.525Z,95618.63
2023-05-06T17:08:12.023Z,95615.55
2023-05-06T17:10:40.520Z,95623.49
2023-05-06T17:13:09.008Z,95626.00
2023-05-06T17:15:37.417Z,95624.68
2023-05-06T17:18:05.705Z,95625.14
2023-05-06T17:20:51.558Z,95628.26
2023-05-06T17:23:22.887Z,95630.04
2023-05-06T17:25:51.542Z,95623.59
2023-05-06T17:28:19.856Z,95623.35
2023-05-06T17:30:48.004Z,95620.98
2023-05-06T17:33:16.958Z,95619.73
2023-05-06T17:35:45.183Z,95622.80
2023-05-06T17:38:13.612Z,95628.10
2023-05-06T17:40:41.866Z,95629.20
2023-05-06T17:43:10.103Z,95618.95
2023-05-06T17:45:40.793Z,95625.52
2023-05-06T17:48:08.891Z,95624.23
2023-05-06T17:50:37.059Z,95630.30
2023-05-06T17:53:05.199Z,95629.00
2023-05-06T17:55:33.478Z,95634.43
2023-05-06T17:58:01.672Z,95637.73
2023-05-06T18:00:30.030Z,95639.83
2023-05-06T18:02:59.190Z,95649.02
2023-05-06T18:05:28.056Z,95650.27
2023-05-06T18:07:56.284Z,95650.48
2023-05-06T18:10:24.588Z,95653.60
2023-05-06T18:12:53.122Z,95657.73
2023-05-06T18:15:21.376Z,95657.18
2023-05-06T18:17:50.188Z,95660.58
2023-05-06T18:20:18.665Z,95656.92
2023-05-06T18:22:47.099Z,95661.00
2023-05-06T18:25:15.589Z,95663.04
2023-05-06T18:27:43.903Z,95663.76
2023-05-06T18:30:12.754Z,95666.14
2023-05-06T18:32:41.009Z,95669.73
2023-05-06T18:35:10.992Z,95675.15
2023-05-06T18:37:39.642Z,95674.77
2023-05-06T18:40:12.019Z,95680.02
2023-05-06T18:42:40.512Z,95684.67
2023-05-06T18:45:09.647Z,95683.20
2023-05-06T18:47:40.108Z,95681.64
2023-05-06T18:50:09.320Z,95680.66
2023-05-06T18:52:37.920Z,95681.77
2023-05-06T18:55:07.592Z,95681.98
2023-05-06T18:57:36.105Z,95679.56
2023-05-06T19:00:07.373Z,95679.45
2023-05-06T19:02:35.601Z,95676.33
2023-05-06T19:05:03.910Z,95678.54
2023-05-06T19:07:32.028Z,95673.67
2023-05-06T19:10:00.673Z,95669.54
2023-05-06T19:12:30.242Z,95662.14
2023-05-06T19:14:58.660Z,95658.27
2023-05-06T19:17:28.001Z,95664.31
2023-05-06T19:19:56.200Z,95657.48
2023-05-06T19:22:24.625Z,95659.12
2023-05-06T19:24:52.673Z,95658.35
2023-05-06T19:27:20.974Z,95663.83
2023-05-06T19:29:49.085Z,95664.90
2023-05-06T19:32:17.357Z,95665.89
2023-05-06T19:34:45.440Z,95667.80
2023-05-06T19:37:13.534Z,95666.13
2023-05-06T19:39:41.798Z,95665.73
2023-05-06T19:42:09.839Z,95668.08
2023-05-06T19:44:37.902Z,95671.11
2023-05-06T19:47:05.953Z,95675.52
2023-05-06T19:49:33.925Z,95678.90
2023-05-06T19:52:01.987Z,95676.19
2023-05-06T19:54:30.033Z,95673.10
2023-05-06T19:56:59.823Z,95673.06
2023-05-06T19:59:27.858Z,95671.91
2023-05-06T20:01:58.554Z,95669.80
2023-05-06T20:04:26.710Z,95671.89
2023-05-06T20:06:54.828Z,95671.83
2023-05-06T20:09:23.197Z,95673.84
2023-05-06T20:11:51.383Z,95675.45
2023-05-06T20:14:19.420Z,95677.39
2023-05-06T20:16:47.615Z,95677.08
2023-05-06T20:19:17.506Z,95676.20
2023-05-06T20:21:45.618Z,95674.13
2023-05-06T20:24:14.047Z,95671.42
2023-05-06T20:26:42.159Z,95668.60
2023-05-06T20:29:10.205Z,95668.25
2023-05-06T20:31:38.556Z,95664.88
2023-05-06T20:34:06.611Z,95664.67
2023-05-06T20:36:35.122Z,95662.05
2023-05-06T20:39:03.283Z,95660.33
2023-05-06T20:41:33.183Z,95659.00
2023-05-06T20:44:01.356Z,95650.84
2023-05-06T20:46:29.324Z,95649.01
2023-05-06T20:48:57.450Z,95648.29
2023-05-06T20:51:27.776Z,95645.67
2023-05-06T20:53:57.072Z,95642.96
2023-05-06T20:56:26.550Z,95640.02
2023-05-06T20:58:55.727Z,95637.30
2023-05-06T21:01:25.452Z,95635.80
2023-05-06T21:03:53.709Z,95640.44
2023-05-06T21:06:21.829Z,95635.61
2023-05-06T21:08:51.830Z,95633.16
2023-05-06T21:11:20.346Z,95632.36
2023-05-06T21:13:50.129Z,95632.31
2023-05-06T21:16:18.630Z,95635.38
2023-05-06T21:18:46.872Z,95629.91
2023-05-06T21:21:14.983Z,95631.38
2023-05-06T21:23:43.082Z,95633.70
2023-05-06T21:26:12.726Z,95639.29
2023-05-06T21:28:40.851Z,95639.95
2023-05-06T21:31:08.994Z,95643.27
2023-05-06T21:33:37.195Z,95644.61
2023-05-06T21:36:05.727Z,95647.17
2023-05-06T21:38:33.708Z,95650.48
2023-05-06T21:41:01.739Z,95650.52
2023-05-06T21:43:31.404Z,95654.78
2023-05-06T21:46:04.017Z,95654.66
2023-05-06T21:48:32.159Z,95661.54
2023-05-06T21:51:03.751Z,95659.55
2023-05-06T21:53:31.864Z,95662.05
2023-05-06T21:55:59.853Z,95658.40
2023-05-06T21:58:27.876Z,95655.86
2023-05-06T22:00:55.866Z,95655.88
2023-05-06T22:03:24.015Z,95656.38
2023-05-06T22:05:52.112Z,95656.99
2023-05-06T22:08:20.383Z,95653.12
2023-05-06T22:10:48.460Z,95657.45
2023-05-06T22:13:16.806Z,95656.67
2023-05-06T22:15:45.026Z,95657.01
2023-05-06T22:18:13.888Z,95657.36
2023-05-06T22:20:42.101Z,95658.20
2023-05-06T22:23:10.859Z,95656.36
2023-05-06T22:25:38.951Z,95654.08
2023-05-06T22:28:07.087Z,95649.39
2023-05-06T22:30:35.134Z,95651.98
2023-05-06T22:33:03.366Z,95647.11
2023-05-06T22:35:31.477Z,95648.23
2023-05-06T22:37:59.649Z,95644.61
2023-05-06T22:40:30.417Z,95644.88
2023-05-06T22:42:58.544Z,95637.37
2023-05-06T22:45:26.670Z,95638.48
2023-05-06T22:47:54.943Z,95635.90
2023-05-06T22:50:23.158Z,95635.12
2023-05-06T22:52:51.258Z,95639.31
2023-05-06T22:55:19.229Z,95634.89
2023-05-06T22:57:50.086Z,95634.86
2023-05-06T23:00:19.079Z,95631.35
2023-05-06T23:02:47.416Z,95627.33
2023-05-06T23:05:15.500Z,95626.08
2023-05-06T23:07:43.536Z,95627.59
2023-05-06T23:10:11.809Z,95627.52
2023-05-06T23:12:40.191Z,95624.74
2023-05-06T23:15:08.905Z,95626.41
2023-05-06T23:17:37.195Z,95627.22
2023-05-06T23:20:06.000Z,95625.16
2023-05-06T23:22:34.092Z,95624.41
2023-05-06T23:25:02.233Z,95621.05
2023-05-06T23:27:30.348Z,95618.21
2023-05-06T23:29:58.445Z,95622.48
2023-05-06T23:32:26.688Z,95620.27
2023-05-06T23:34:54.886Z,95622.27
2023-05-06T23:37:22.947Z,95619.16
2023-05-06T23:39:51.131Z,95617.47
2023-05-06T23:42:19.521Z,95615.44
2023-05-06T23:44:48.194Z,95615.39
2023-05-06T23:47:16.478Z,95615.96
2023-05-06T23:49:44.648Z,95612.71
2023-05-06T23:52:12.700Z,95605.94
2023-05-06T23:54:40.822Z,95604.34
2023-05-06T23:57:08.894Z,95602.92
2023-05-06T23:59:37.021Z,95597.52
